RJNH(METAR)
01/27 07:00
METAR RJNH 262200Z 28007KT 9999 FEW020 SCT150 BKN230 01/M04 Q1013
RMK 1CU020 4AC150 A2993=
戻る
トップページへ戻る
IMOC Co,.Ltd.